EKCH/CPH METAR and TAF weather

Enter ICAO airport designator
Station Type Date Time Source
EKCH METAR 2021/07/28 03:20 UTC NOAA

EKCH 280320Z 20006KT 9999 FEW045 BKN071 19/16 Q1009 TEMPO 4000 SHRA BKN012 BKN040CB


Station Type Date Time Source
EKCH Decoded METAR 2021/07/28 03:20 UTC NOAA

Koebenhavn / Kastrup, Denmark (EKCH) 55-37N 012-39E 5M
Jul 27, 2021 - 11:20 PM EDT / 2021.07.28 0320 UTC
Wind: from the SSW (200 degrees) at 7 MPH (6 KT):0
Visibility: greater than 7 mile(s):0
Sky conditions: mostly cloudy
Weather: Cumulonimbus clouds observed
Temperature: 66 F (19 C)
Dew Point: 60 F (16 C)
Relative Humidity: 82%
Pressure (altimeter): 29.80 in. Hg (1009 hPa)
ob: EKCH 280320Z 20006KT 9999 FEW045 BKN071 19/16 Q1009 TEMPO 4000 SHRA BKN012 BKN040CB
cycle: 3

Station Type Date Time Source
EKCH TAF 2021/07/27 20:25 UTC NOAA

TAF
AMD EKCH 272023Z 2720/2818 19008KT 9999 SCT040
TEMPO 2803/2809 4000 SHRA BKN012 BKN040CB PROB40 2812/2818 SCT035CB

Example: see airport list